createdAt,value
2022-11-23T00:01:54.748Z,6.30
2022-11-23T00:06:31.387Z,6.40
2022-11-23T00:11:08.664Z,6.30
2022-11-23T00:15:47.742Z,6.20
2022-11-23T00:20:24.208Z,6.20
2022-11-23T00:25:00.675Z,6.40
2022-11-23T00:29:37.248Z,6.30
2022-11-23T00:34:16.315Z,6.30
2022-11-23T00:38:54.343Z,6.20
2022-11-23T00:43:31.235Z,6.30
2022-11-23T00:48:08.926Z,6.10
2022-11-23T00:52:47.995Z,6.10
2022-11-23T00:57:24.570Z,6.20
2022-11-23T01:02:01.194Z,6.10
2022-11-23T01:06:39.792Z,5.90
2022-11-23T01:11:19.864Z,6.00
2022-11-23T01:15:56.292Z,6.00
2022-11-23T01:20:32.803Z,6.00
2022-11-23T01:25:11.677Z,6.10
2022-11-23T01:29:50.941Z,6.00
2022-11-23T01:34:28.775Z,5.80
2022-11-23T01:39:08.569Z,6.00
2022-11-23T01:43:46.321Z,6.00
2022-11-23T01:48:28.771Z,5.80
2022-11-23T01:53:05.603Z,5.80
2022-11-23T01:57:46.613Z,5.70
2022-11-23T02:02:23.111Z,5.70
2022-11-23T02:07:06.631Z,5.60
2022-11-23T02:11:43.369Z,5.70
2022-11-23T02:16:23.130Z,5.70
2022-11-23T02:21:02.083Z,5.70
2022-11-23T02:25:45.762Z,5.70
2022-11-23T02:30:24.904Z,5.50
2022-11-23T02:35:03.172Z,5.50
2022-11-23T02:39:42.678Z,5.40
2022-11-23T02:44:31.318Z,5.50
2022-11-23T02:49:10.378Z,5.30
2022-11-23T02:53:46.948Z,5.30
2022-11-23T02:58:23.441Z,5.20
2022-11-23T03:03:01.867Z,5.10
2022-11-23T03:07:41.001Z,5.10
2022-11-23T03:12:20.552Z,5.10
2022-11-23T03:16:57.302Z,5.20
2022-11-23T03:21:33.935Z,5.20
2022-11-23T03:26:19.062Z,5.00
2022-11-23T03:31:04.621Z,5.00
2022-11-23T03:35:41.276Z,5.10
2022-11-23T03:40:32.748Z,5.10
2022-11-23T03:45:23.007Z,5.10
2022-11-23T03:49:59.488Z,5.00
2022-11-23T03:54:36.115Z,4.80
2022-11-23T03:59:13.946Z,4.90
2022-11-23T04:03:53.050Z,5.00
2022-11-23T04:08:44.372Z,4.90
2022-11-23T04:13:28.343Z,4.80
2022-11-23T04:18:05.046Z,4.70
2022-11-23T04:22:44.244Z,4.80
2022-11-23T04:27:20.917Z,4.90
2022-11-23T04:31:57.510Z,4.80
2022-11-23T04:36:34.226Z,4.80
2022-11-23T04:41:13.921Z,4.90
2022-11-23T04:45:50.590Z,4.90
2022-11-23T04:50:34.250Z,4.80
2022-11-23T04:55:11.750Z,4.70
2022-11-23T04:59:59.372Z,4.60
2022-11-23T05:04:37.995Z,4.50
2022-11-23T05:09:15.641Z,4.50
2022-11-23T05:14:01.081Z,4.50
2022-11-23T05:18:42.059Z,4.30
2022-11-23T05:23:19.078Z,4.30
2022-11-23T05:27:56.114Z,4.40
2022-11-23T05:32:32.615Z,4.30
2022-11-23T05:37:13.412Z,4.30
2022-11-23T05:41:59.350Z,4.40
2022-11-23T05:46:53.513Z,4.40
2022-11-23T05:51:32.124Z,4.40
2022-11-23T05:56:12.128Z,4.50
2022-11-23T06:01:02.102Z,4.50
2022-11-23T06:05:43.420Z,4.40
2022-11-23T06:10:20.098Z,4.40
2022-11-23T06:15:01.048Z,4.20
2022-11-23T06:19:39.482Z,4.10
2022-11-23T06:24:16.167Z,4.20
2022-11-23T06:28:52.725Z,4.20
2022-11-23T06:33:31.809Z,4.20
2022-11-23T06:38:08.952Z,4.20
2022-11-23T06:42:46.115Z,4.20
2022-11-23T06:47:28.318Z,4.10
2022-11-23T06:52:08.829Z,4.10
2022-11-23T06:56:45.396Z,4.20
2022-11-23T07:01:22.087Z,4.20
2022-11-23T07:06:08.874Z,4.20
2022-11-23T07:10:48.668Z,4.20
2022-11-23T07:15:26.897Z,4.20
2022-11-23T07:20:03.386Z,4.10
2022-11-23T07:24:45.317Z,4.10
2022-11-23T07:29:25.742Z,4.10
2022-11-23T07:34:02.269Z,4.10
2022-11-23T07:38:39.204Z,4.10
2022-11-23T07:43:16.372Z,4.10
2022-11-23T07:48:05.067Z,4.10
2022-11-23T07:52:42.202Z,4.10
2022-11-23T07:57:18.764Z,4.20
2022-11-23T08:01:58.430Z,4.40
2022-11-23T08:06:37.804Z,4.50
2022-11-23T08:11:18.351Z,4.60
2022-11-23T08:15:56.126Z,4.60
2022-11-23T08:20:33.582Z,4.90
2022-11-23T08:25:12.837Z,4.70
2022-11-23T08:29:49.352Z,4.70
2022-11-23T08:34:25.741Z,4.70
2022-11-23T08:39:02.155Z,4.80
2022-11-23T08:43:41.227Z,4.90
2022-11-23T08:48:17.679Z,4.70
2022-11-23T08:52:58.578Z,4.90
2022-11-23T08:57:35.072Z,4.90
2022-11-23T09:02:15.634Z,4.80
2022-11-23T09:06:52.129Z,4.90
2022-11-23T09:11:28.611Z,4.90
2022-11-23T09:16:06.519Z,4.90
2022-11-23T09:20:45.602Z,5.10
2022-11-23T09:25:22.749Z,5.30
2022-11-23T09:29:59.208Z,5.40
2022-11-23T09:34:35.717Z,5.60
2022-11-23T09:39:14.736Z,5.70
2022-11-23T09:43:59.787Z,5.80
2022-11-23T09:48:50.168Z,5.90
2022-11-23T09:53:33.117Z,6.10
2022-11-23T09:58:17.669Z,6.20
2022-11-23T10:02:54.223Z,6.30
2022-11-23T10:07:49.090Z,6.50
2022-11-23T10:12:42.490Z,6.50
2022-11-23T10:17:32.302Z,6.60
2022-11-23T10:22:13.609Z,6.70
2022-11-23T10:26:52.037Z,6.80
2022-11-23T10:31:28.713Z,6.90
2022-11-23T10:36:09.755Z,6.90
2022-11-23T10:40:52.360Z,7.00
2022-11-23T10:45:31.297Z,7.10
2022-11-23T10:50:24.699Z,7.20
2022-11-23T10:55:09.320Z,7.20
2022-11-23T10:59:45.784Z,7.30
2022-11-23T11:04:26.226Z,7.40
2022-11-23T11:09:08.461Z,7.60
2022-11-23T11:13:52.277Z,7.60
2022-11-23T11:18:31.969Z,7.80
2022-11-23T11:23:20.553Z,7.80
2022-11-23T11:27:57.176Z,7.80
2022-11-23T11:32:45.441Z,7.80
2022-11-23T11:37:33.019Z,7.90
2022-11-23T11:42:19.233Z,7.90
2022-11-23T11:47:02.096Z,8.10
2022-11-23T11:51:45.734Z,8.20
2022-11-23T11:56:30.182Z,8.20
2022-11-23T12:01:16.581Z,8.40
2022-11-23T12:05:54.964Z,8.50
2022-11-23T12:10:41.367Z,8.70
2022-11-23T12:20:26.601Z,8.80
2022-11-23T12:25:27.351Z,8.70
2022-11-23T12:30:20.114Z,8.70
2022-11-23T12:35:14.787Z,8.80
2022-11-23T12:40:09.967Z,8.70
2022-11-23T12:44:58.777Z,8.70
2022-11-23T12:49:46.671Z,8.90
2022-11-23T12:54:35.313Z,9.10
2022-11-23T12:59:13.557Z,9.40
2022-11-23T13:04:25.290Z,9.50
2022-11-23T13:09:23.974Z,9.50
2022-11-23T13:14:18.776Z,9.30
2022-11-23T13:19:27.663Z,9.40
2022-11-23T13:24:04.512Z,9.50
2022-11-23T13:28:44.075Z,9.50
2022-11-23T13:33:39.200Z,9.60
2022-11-23T13:38:27.058Z,9.80
2022-11-23T13:43:07.361Z,9.60
2022-11-23T13:53:25.146Z,9.80
2022-11-23T13:58:31.717Z,9.70
2022-11-23T14:03:38.809Z,9.70
2022-11-23T14:08:21.517Z,9.60
2022-11-23T14:13:03.611Z,9.60
2022-11-23T14:18:09.889Z,9.60
2022-11-23T14:23:01.536Z,9.70
2022-11-23T14:27:54.228Z,9.60
2022-11-23T14:32:42.320Z,9.60
2022-11-23T14:37:28.443Z,9.60
2022-11-23T14:42:11.728Z,9.40
2022-11-23T14:47:07.630Z,9.40
2022-11-23T14:51:46.685Z,9.40
2022-11-23T14:56:29.531Z,9.40
2022-11-23T15:01:06.466Z,9.40
2022-11-23T15:05:48.782Z,9.30
2022-11-23T15:10:39.973Z,9.20
2022-11-23T15:15:21.939Z,9.10
2022-11-23T15:19:59.875Z,9.10
2022-11-23T15:24:39.063Z,9.10
2022-11-23T15:29:31.609Z,9.00
2022-11-23T15:34:15.545Z,9.00
2022-11-23T15:38:52.438Z,9.10
2022-11-23T15:43:31.537Z,9.00
2022-11-23T15:48:12.380Z,9.00
2022-11-23T15:52:49.343Z,8.90
2022-11-23T15:57:28.858Z,8.80
2022-11-23T16:02:09.770Z,8.70
2022-11-23T16:06:50.820Z,8.60
2022-11-23T16:11:35.830Z,8.70
2022-11-23T16:16:18.125Z,8.70
2022-11-23T16:21:00.567Z,8.60
2022-11-23T16:25:37.973Z,8.70
2022-11-23T16:30:27.540Z,8.70
2022-11-23T16:35:19.380Z,8.70
2022-11-23T16:39:58.462Z,8.70
2022-11-23T16:44:40.095Z,8.60
2022-11-23T16:49:20.563Z,8.70
2022-11-23T16:54:16.057Z,8.70
2022-11-23T16:58:57.667Z,8.70
2022-11-23T17:03:34.164Z,8.70
2022-11-23T17:08:10.828Z,8.70
2022-11-23T17:12:53.262Z,8.70
2022-11-23T17:17:32.519Z,8.70
2022-11-23T17:22:09.099Z,8.60
2022-11-23T17:26:49.013Z,8.60
2022-11-23T17:31:25.626Z,8.60
2022-11-23T17:36:04.822Z,8.60
2022-11-23T17:40:41.314Z,8.60
2022-11-23T17:45:18.045Z,8.50
2022-11-23T17:49:54.631Z,8.40
2022-11-23T17:54:33.661Z,8.40
2022-11-23T17:59:10.237Z,8.40
2022-11-23T18:03:47.636Z,8.40
